createdAt,value
2018-11-10T00:00:15.124Z,8.04
2018-11-10T00:01:15.314Z,8.02
2018-11-10T00:02:15.001Z,8.04
2018-11-10T00:03:14.990Z,8.01
2018-11-10T00:04:15.012Z,8.10
2018-11-10T00:05:15.102Z,8.09
2018-11-10T00:06:14.903Z,8.13
2018-11-10T00:07:14.935Z,8.16
2018-11-10T00:08:15.284Z,8.20
2018-11-10T00:09:14.833Z,8.12
2018-11-10T00:10:14.836Z,8.19
2018-11-10T00:11:14.821Z,8.21
2018-11-10T00:12:14.796Z,8.13
2018-11-10T00:13:14.816Z,8.26
2018-11-10T00:14:14.762Z,8.20
2018-11-10T00:15:15.351Z,8.28
2018-11-10T00:16:14.722Z,8.20
2018-11-10T00:17:14.747Z,8.19
2018-11-10T00:18:14.678Z,8.21
2018-11-10T00:19:14.767Z,8.20
2018-11-10T00:20:14.731Z,8.17
2018-11-10T00:21:14.608Z,8.20
2018-11-10T00:22:14.857Z,8.21
2018-11-10T00:23:14.588Z,8.17
2018-11-10T00:25:14.580Z,8.21
2018-11-10T00:26:14.671Z,8.31
2018-11-10T00:27:14.487Z,8.23
2018-11-10T00:28:14.764Z,8.28
2018-11-10T00:29:14.646Z,8.28
2018-11-10T00:30:14.552Z,8.28
2018-11-10T00:31:14.473Z,8.17
2018-11-10T00:32:14.389Z,8.31
2018-11-10T00:33:14.348Z,8.34
2018-11-10T00:34:14.628Z,8.29
2018-11-10T00:35:14.309Z,8.37
2018-11-10T00:36:14.293Z,8.34
2018-11-10T00:37:14.292Z,8.16
2018-11-10T00:38:14.836Z,8.20
2018-11-10T00:39:14.278Z,8.20
2018-11-10T00:40:14.512Z,8.24
2018-11-10T00:41:14.198Z,8.14
2018-11-10T00:42:14.320Z,8.21
2018-11-10T00:43:14.202Z,8.19
2018-11-10T00:44:14.183Z,8.09
2018-11-10T00:45:14.111Z,8.16
2018-11-10T00:46:14.420Z,8.12
2018-11-10T00:47:14.127Z,8.12
2018-11-10T00:48:14.045Z,8.09
2018-11-10T00:49:14.022Z,8.10
2018-11-10T00:50:14.053Z,8.09
2018-11-10T00:51:13.991Z,8.17
2018-11-10T00:52:14.288Z,8.12
2018-11-10T00:53:14.034Z,8.14
2018-11-10T00:55:13.939Z,8.17
2018-11-10T00:56:14.196Z,8.19
2018-11-10T00:57:14.101Z,8.20
2018-11-10T00:58:14.167Z,8.16
2018-11-10T00:59:13.853Z,8.21
2018-11-10T01:00:13.885Z,8.19
2018-11-10T01:01:13.789Z,8.28
2018-11-10T01:02:13.787Z,8.21
2018-11-10T01:03:13.774Z,8.19
2018-11-10T01:04:13.854Z,8.28
2018-11-10T01:05:14.039Z,8.35
2018-11-10T01:06:16.198Z,8.32
2018-11-10T01:07:13.676Z,8.28
2018-11-10T01:08:13.645Z,8.34
2018-11-10T01:09:13.934Z,8.32
2018-11-10T01:10:13.699Z,8.31
2018-11-10T01:11:13.578Z,8.31
2018-11-10T01:13:13.903Z,8.37
2018-11-10T01:14:13.526Z,8.29
2018-11-10T01:15:13.524Z,8.37
2018-11-10T01:16:13.479Z,8.41
2018-11-10T01:17:13.458Z,8.35
2018-11-10T01:18:13.462Z,8.31
2018-11-10T01:19:13.422Z,8.39
2018-11-10T01:20:13.707Z,8.29
2018-11-10T01:21:13.389Z,8.37
2018-11-10T01:22:13.479Z,8.46
2018-11-10T01:23:13.331Z,8.38
2018-11-10T01:24:13.322Z,8.37
2018-11-10T01:25:13.342Z,8.44
2018-11-10T01:26:13.290Z,8.44
2018-11-10T01:27:13.618Z,8.46
2018-11-10T01:28:13.257Z,8.39
2018-11-10T01:29:13.347Z,8.39
2018-11-10T01:30:13.304Z,8.46
2018-11-10T01:32:13.156Z,8.44
2018-11-10T01:33:13.143Z,8.38
2018-11-10T01:34:13.416Z,8.49
2018-11-10T01:35:13.096Z,8.50
2018-11-10T01:36:13.081Z,8.35
2018-11-10T01:37:13.060Z,8.53
2018-11-10T01:38:13.238Z,8.46
2018-11-10T01:39:13.027Z,8.47
2018-11-10T01:40:13.138Z,8.42
2018-11-10T01:41:13.281Z,8.39
2018-11-10T01:42:12.974Z,8.37
2018-11-10T01:43:12.938Z,8.39
2018-11-10T01:44:13.029Z,8.38
2018-11-10T01:45:12.891Z,8.39
2018-11-10T01:46:13.074Z,8.32
2018-11-10T01:47:12.850Z,8.39
2018-11-10T01:48:13.138Z,8.37
2018-11-10T01:49:12.809Z,8.37
2018-11-10T01:50:12.792Z,8.41
2018-11-10T01:51:12.772Z,8.29
2018-11-10T01:52:12.748Z,8.41
2018-11-10T01:53:12.742Z,8.39
2018-11-10T01:55:13.301Z,8.37
2018-11-10T01:56:12.680Z,8.31
2018-11-10T01:57:12.656Z,8.37
2018-11-10T01:58:12.643Z,8.29
2018-11-10T01:59:12.705Z,8.32
2018-11-10T02:00:12.609Z,8.24
2018-11-10T02:01:13.085Z,8.34
2018-11-10T02:02:12.556Z,8.14
2018-11-10T02:03:12.533Z,8.19
2018-11-10T02:04:12.528Z,8.16
2018-11-10T02:05:12.503Z,8.17
2018-11-10T02:06:12.672Z,8.20
2018-11-10T02:07:12.882Z,8.19
2018-11-10T02:08:12.437Z,8.21
2018-11-10T02:09:12.425Z,8.17
2018-11-10T02:10:12.414Z,8.14
2018-11-10T02:11:12.485Z,8.21
2018-11-10T02:12:12.366Z,8.12
2018-11-10T02:13:12.642Z,8.17
2018-11-10T02:14:12.318Z,8.21
2018-11-10T02:15:12.325Z,8.17
2018-11-10T02:17:12.394Z,8.19
2018-11-10T02:18:12.241Z,8.16
2018-11-10T02:19:12.508Z,8.20
2018-11-10T02:21:12.176Z,8.20
2018-11-10T02:22:12.194Z,8.24
2018-11-10T02:23:12.136Z,8.24
2018-11-10T02:24:12.122Z,8.20
2018-11-10T02:25:12.411Z,8.14
2018-11-10T02:26:12.059Z,8.14
2018-11-10T02:27:13.339Z,8.16
2018-11-10T02:28:12.031Z,8.14
2018-11-10T02:29:12.005Z,8.10
2018-11-10T02:30:12.006Z,8.01
2018-11-10T02:31:12.181Z,8.04
2018-11-10T02:32:12.468Z,7.96
2018-11-10T02:33:11.921Z,8.01
2018-11-10T02:34:11.908Z,7.94
2018-11-10T02:35:11.882Z,7.99
2018-11-10T02:36:11.868Z,7.94
2018-11-10T02:38:12.113Z,7.95
2018-11-10T02:40:11.800Z,7.91
2018-11-10T02:41:11.794Z,7.88
2018-11-10T02:42:11.749Z,7.88
2018-11-10T02:43:11.733Z,7.91
2018-11-10T02:44:11.694Z,7.92
2018-11-10T02:45:11.981Z,7.96
2018-11-10T02:46:13.088Z,7.98
2018-11-10T02:47:11.627Z,8.01
2018-11-10T02:48:11.611Z,8.06
2018-11-10T02:49:11.895Z,8.10
2018-11-10T02:50:11.638Z,8.12
2018-11-10T02:51:11.757Z,8.13
2018-11-10T02:52:12.627Z,8.20
2018-11-10T02:53:11.523Z,8.16
2018-11-10T02:54:12.145Z,8.32
2018-11-10T02:55:11.578Z,8.37
2018-11-10T02:56:11.518Z,8.37
2018-11-10T02:57:11.526Z,8.42
2018-11-10T02:59:11.955Z,8.28
2018-11-10T03:01:11.658Z,8.37
2018-11-10T03:02:11.374Z,8.41
2018-11-10T03:03:11.306Z,8.41
2018-11-10T03:05:11.573Z,8.41
2018-11-10T03:06:11.257Z,8.42
2018-11-10T03:07:11.240Z,8.42
2018-11-10T03:08:11.203Z,8.39
2018-11-10T03:09:11.199Z,8.46
2018-11-10T03:10:11.385Z,8.56
2018-11-10T03:11:11.433Z,8.55
2018-11-10T03:12:11.409Z,8.50
2018-11-10T03:13:11.102Z,8.52
2018-11-10T03:14:11.071Z,8.55
2018-11-10T03:15:11.107Z,8.50
2018-11-10T03:16:11.068Z,8.53
2018-11-10T03:17:11.012Z,8.53
2018-11-10T03:18:11.287Z,8.52
2018-11-10T03:19:10.964Z,8.56
2018-11-10T03:21:10.928Z,8.56
2018-11-10T03:22:10.906Z,8.57
2018-11-10T03:23:10.884Z,8.60
2018-11-10T03:24:11.116Z,8.59
2018-11-10T03:25:11.046Z,8.60
2018-11-10T03:26:10.926Z,8.62
2018-11-10T03:27:10.804Z,8.57
2018-11-10T03:28:10.804Z,8.67
2018-11-10T03:29:10.765Z,8.65
2018-11-10T03:30:10.997Z,8.70
2018-11-10T03:31:10.737Z,8.70
2018-11-10T03:32:10.704Z,8.70
2018-11-10T03:33:10.684Z,8.81
2018-11-10T03:34:10.660Z,8.70
2018-11-10T03:35:10.649Z,8.72
2018-11-10T03:36:10.919Z,8.70
2018-11-10T03:37:10.714Z,8.75
2018-11-10T03:38:10.693Z,8.72
2018-11-10T03:39:10.870Z,8.81
2018-11-10T03:40:10.869Z,8.71
2018-11-10T03:41:10.537Z,8.78
2018-11-10T03:42:10.859Z,8.74
2018-11-10T03:43:10.508Z,8.74
2018-11-10T03:44:10.495Z,8.78
2018-11-10T03:45:10.472Z,8.72
2018-11-10T03:47:10.408Z,8.77
2018-11-10T03:48:10.386Z,8.80
2018-11-10T03:49:10.867Z,8.78
2018-11-10T03:50:10.366Z,8.81
2018-11-10T03:51:10.329Z,8.78
2018-11-10T03:52:10.304Z,8.75
2018-11-10T03:53:10.338Z,8.77
2018-11-10T03:54:10.268Z,8.80
2018-11-10T03:55:10.546Z,8.81
2018-11-10T03:56:10.221Z,8.81
2018-11-10T03:57:10.204Z,8.80
2018-11-10T03:58:10.185Z,8.81
2018-11-10T03:59:10.156Z,8.77
2018-11-10T04:00:10.134Z,8.80
2018-11-10T04:01:10.165Z,8.75
2018-11-10T04:02:10.550Z,8.81
2018-11-10T04:03:10.087Z,8.89
2018-11-10T04:04:10.072Z,8.88
2018-11-10T04:05:10.070Z,8.86
2018-11-10T04:06:10.018Z,8.85
2018-11-10T04:07:10.012Z,8.83
2018-11-10T04:08:10.276Z,8.83
2018-11-10T04:09:10.209Z,8.83
2018-11-10T04:10:09.941Z,8.86
2018-11-10T04:11:09.918Z,8.78
2018-11-10T04:12:10.095Z,8.78
2018-11-10T04:13:09.973Z,8.75
2018-11-10T04:14:09.958Z,8.74
2018-11-10T04:15:09.843Z,8.80
2018-11-10T04:16:10.166Z,8.78
2018-11-10T04:17:09.797Z,8.78
2018-11-10T04:18:09.806Z,8.77
2018-11-10T04:19:09.870Z,8.80
2018-11-10T04:20:10.010Z,8.83
2018-11-10T04:21:09.852Z,8.85
2018-11-10T04:22:09.715Z,8.81
2018-11-10T04:23:09.949Z,8.78
2018-11-10T04:24:10.092Z,8.81
2018-11-10T04:25:09.664Z,8.80
2018-11-10T04:26:09.738Z,8.90
2018-11-10T04:27:09.778Z,8.88
2018-11-10T04:28:10.297Z,8.78
2018-11-10T04:29:09.869Z,8.78
2018-11-10T04:30:09.859Z,8.78
2018-11-10T04:31:09.530Z,8.96
2018-11-10T04:33:09.495Z,8.90
2018-11-10T04:34:09.764Z,8.89
2018-11-10T04:35:09.442Z,8.86
2018-11-10T04:36:09.535Z,8.89
2018-11-10T04:37:09.709Z,8.88
2018-11-10T04:38:10.662Z,8.93
2018-11-10T04:39:09.352Z,8.88
2018-11-10T04:40:09.357Z,8.93
2018-11-10T04:41:09.334Z,8.89
2018-11-10T04:42:09.316Z,8.90
2018-11-10T04:43:09.598Z,8.89
2018-11-10T04:44:09.379Z,8.98
2018-11-10T04:45:09.264Z,8.95
2018-11-10T04:47:09.220Z,8.93
2018-11-10T04:48:09.182Z,8.96
2018-11-10T04:49:09.459Z,8.95
2018-11-10T04:50:09.458Z,8.95
2018-11-10T04:51:09.130Z,9.01
2018-11-10T04:52:09.100Z,8.99
2018-11-10T04:53:09.089Z,9.01
2018-11-10T04:55:09.355Z,9.06
2018-11-10T04:56:09.236Z,9.08
2018-11-10T04:57:09.260Z,9.03
2018-11-10T04:58:09.130Z,9.08
2018-11-10T04:59:08.980Z,9.04
2018-11-10T05:00:10.140Z,9.09
2018-11-10T05:01:09.242Z,9.15
2018-11-10T05:02:09.256Z,9.19
2018-11-10T05:03:08.878Z,9.14
2018-11-10T05:04:08.855Z,9.18
2018-11-10T05:05:08.858Z,9.15
2018-11-10T05:06:08.922Z,9.24
2018-11-10T05:07:09.415Z,9.26
2018-11-10T05:08:08.814Z,9.22
2018-11-10T05:09:08.865Z,9.32
2018-11-10T05:10:08.860Z,9.27
2018-11-10T05:11:09.953Z,9.33
2018-11-10T05:12:08.734Z,9.36
2018-11-10T05:13:08.986Z,9.41
2018-11-10T05:14:08.674Z,9.44
2018-11-10T05:15:08.649Z,9.44
2018-11-10T05:16:08.626Z,9.44
2018-11-10T05:17:08.691Z,9.40
2018-11-10T05:18:08.888Z,9.42
2018-11-10T05:19:08.889Z,9.45
2018-11-10T05:20:08.672Z,9.45
2018-11-10T05:21:08.881Z,9.47
2018-11-10T05:22:08.527Z,9.50
2018-11-10T05:23:08.487Z,9.50
2018-11-10T05:24:08.573Z,9.50
2018-11-10T05:25:08.468Z,9.44
2018-11-10T05:27:08.764Z,9.50
2018-11-10T05:28:08.402Z,9.50
2018-11-10T05:29:08.372Z,9.48
2018-11-10T05:30:08.369Z,9.45
2018-11-10T05:31:08.374Z,9.54
2018-11-10T05:32:08.447Z,9.50
2018-11-10T05:33:08.352Z,9.52
2018-11-10T05:34:08.966Z,9.54
2018-11-10T05:35:08.261Z,9.57
2018-11-10T05:36:08.262Z,9.48
2018-11-10T05:37:08.215Z,9.57
2018-11-10T05:38:09.395Z,9.55
2018-11-10T05:39:08.172Z,9.59
2018-11-10T05:40:08.153Z,9.52
2018-11-10T05:41:08.447Z,9.65
2018-11-10T05:43:08.128Z,9.55
2018-11-10T05:44:08.099Z,9.69
2018-11-10T05:45:08.102Z,9.62
2018-11-10T05:46:08.039Z,9.60
2018-11-10T05:47:08.119Z,9.62
2018-11-10T05:48:08.305Z,9.60
2018-11-10T05:49:08.026Z,9.67
2018-11-10T05:50:07.967Z,9.69
2018-11-10T05:51:07.951Z,9.65
2018-11-10T05:52:07.928Z,9.65
2018-11-10T05:53:07.907Z,9.67
2018-11-10T05:54:07.881Z,9.65
2018-11-10T05:55:08.156Z,9.66
2018-11-10T05:56:08.362Z,9.65
2018-11-10T05:57:07.905Z,9.67
2018-11-10T05:58:07.797Z,9.62
2018-11-10T05:59:08.098Z,9.66
2018-11-10T06:00:07.776Z,9.67
2018-11-10T06:01:07.767Z,9.63
2018-11-10T06:02:08.048Z,9.72
2018-11-10T06:03:07.748Z,9.63
2018-11-10T06:04:07.754Z,9.70
2018-11-10T06:05:07.737Z,9.69
2018-11-10T06:06:07.989Z,9.69
2018-11-10T06:07:07.651Z,9.73
2018-11-10T06:08:07.618Z,9.75
2018-11-10T06:09:07.982Z,9.85
2018-11-10T06:10:07.815Z,9.78
2018-11-10T06:11:07.623Z,9.81
2018-11-10T06:12:07.657Z,9.84
2018-11-10T06:13:07.508Z,9.83
2018-11-10T06:14:07.831Z,9.80
2018-11-10T06:16:09.057Z,9.94
2018-11-10T06:17:07.426Z,9.80
2018-11-10T06:18:07.413Z,9.88
2018-11-10T06:19:07.691Z,9.85
2018-11-10T06:20:07.388Z,9.94
2018-11-10T06:21:08.058Z,9.98
2018-11-10T06:22:07.649Z,9.96
2018-11-10T06:24:07.330Z,10.01
2018-11-10T06:25:07.313Z,10.02
2018-11-10T06:26:07.401Z,10.01
2018-11-10T06:27:07.253Z,10.10
2018-11-10T06:28:07.528Z,10.20
2018-11-10T06:29:07.215Z,10.12
2018-11-10T06:30:07.220Z,10.20
2018-11-10T06:31:07.566Z,10.17
2018-11-10T06:32:07.549Z,10.24
2018-11-10T06:33:07.200Z,10.21
2018-11-10T06:34:07.417Z,10.31
2018-11-10T06:35:07.202Z,10.36
2018-11-10T06:36:07.075Z,10.46
2018-11-10T06:37:07.162Z,10.54
2018-11-10T06:38:07.141Z,10.49
2018-11-10T06:39:07.224Z,10.52
2018-11-10T06:40:07.311Z,10.58
2018-11-10T06:41:06.984Z,10.55
2018-11-10T06:42:06.964Z,10.57
2018-11-10T06:43:06.928Z,10.57
2018-11-10T06:44:06.910Z,10.58
2018-11-10T06:45:06.890Z,10.57
2018-11-10T06:46:07.163Z,10.58
2018-11-10T06:47:06.915Z,10.62
2018-11-10T06:48:06.854Z,10.57
2018-11-10T06:50:06.807Z,10.57
2018-11-10T06:51:06.866Z,10.52
2018-11-10T06:52:06.882Z,10.55
2018-11-10T06:53:07.109Z,10.52
2018-11-10T06:54:06.709Z,10.42
2018-11-10T06:55:06.688Z,10.28
2018-11-10T06:56:06.697Z,10.35
2018-11-10T06:57:06.647Z,10.35
2018-11-10T06:58:06.632Z,10.34
2018-11-10T06:59:06.720Z,10.31
2018-11-10T07:00:06.927Z,10.16
2018-11-10T07:01:06.574Z,10.24
2018-11-10T07:02:07.261Z,10.24
2018-11-10T07:03:06.767Z,10.27
2018-11-10T07:04:06.541Z,10.21
2018-11-10T07:05:06.563Z,10.26
2018-11-10T07:06:06.572Z,10.24
2018-11-10T07:07:07.984Z,10.21
2018-11-10T07:08:06.459Z,10.17
2018-11-10T07:09:06.453Z,10.20
2018-11-10T07:10:06.451Z,10.14
2018-11-10T07:11:06.711Z,10.20
2018-11-10T07:12:06.381Z,10.17
2018-11-10T07:13:06.376Z,10.18
2018-11-10T07:14:06.669Z,10.23
2018-11-10T07:15:06.331Z,10.20
2018-11-10T07:16:06.368Z,10.30
2018-11-10T07:18:06.338Z,10.23
2018-11-10T07:19:06.278Z,10.27
2018-11-10T07:20:06.337Z,10.23
2018-11-10T07:21:06.512Z,10.21
2018-11-10T07:22:06.178Z,10.16
2018-11-10T07:23:06.147Z,10.26
2018-11-10T07:24:06.463Z,10.23
2018-11-10T07:25:06.181Z,10.27
2018-11-10T07:26:06.110Z,10.28
2018-11-10T07:27:06.100Z,10.20
2018-11-10T07:28:06.377Z,10.27
2018-11-10T07:29:06.045Z,10.18
2018-11-10T07:30:06.041Z,10.35
2018-11-10T07:31:06.031Z,10.26
2018-11-10T07:32:06.154Z,10.34
2018-11-10T07:33:05.983Z,10.36
2018-11-10T07:34:05.998Z,10.31
2018-11-10T07:35:06.227Z,10.35
2018-11-10T07:36:05.943Z,10.35
2018-11-10T07:37:05.980Z,10.41
2018-11-10T07:38:05.882Z,10.48
2018-11-10T07:39:05.873Z,10.54
2018-11-10T07:40:05.846Z,10.55
2018-11-10T07:41:06.060Z,10.54
2018-11-10T07:42:05.795Z,10.54
2018-11-10T07:43:06.007Z,10.62
2018-11-10T07:44:05.767Z,10.62
2018-11-10T07:45:06.114Z,10.72
2018-11-10T07:46:05.737Z,10.72
2018-11-10T07:47:06.044Z,10.70
2018-11-10T07:48:05.703Z,10.72
2018-11-10T07:49:05.753Z,10.72
2018-11-10T07:50:05.677Z,10.79
2018-11-10T07:51:05.624Z,10.73
2018-11-10T07:52:05.599Z,10.72
2018-11-10T07:53:05.980Z,10.73
2018-11-10T07:54:05.569Z,10.82
2018-11-10T07:55:05.549Z,10.83
2018-11-10T07:56:05.631Z,10.91
2018-11-10T07:57:06.049Z,11.00
2018-11-10T07:58:05.522Z,11.00
2018-11-10T07:59:05.722Z,10.95
2018-11-10T08:00:05.476Z,11.05
2018-11-10T08:01:05.478Z,11.12
2018-11-10T08:02:05.496Z,11.09
2018-11-10T08:03:05.742Z,11.04
2018-11-10T08:04:05.452Z,11.08
2018-11-10T08:05:05.681Z,11.16
2018-11-10T08:06:05.370Z,11.11
2018-11-10T08:07:05.340Z,11.11
2018-11-10T08:08:05.329Z,11.08
2018-11-10T08:09:05.556Z,11.09
2018-11-10T08:10:05.344Z,11.18
2018-11-10T08:11:06.003Z,11.27
2018-11-10T08:12:05.531Z,11.23
2018-11-10T08:13:05.223Z,11.33
2018-11-10T08:14:05.191Z,11.30
2018-11-10T08:15:05.206Z,11.30
2018-11-10T08:16:05.171Z,11.30
2018-11-10T08:17:05.154Z,11.33
2018-11-10T08:18:05.630Z,11.31
2018-11-10T08:19:06.392Z,11.41
2018-11-10T08:20:05.088Z,11.36
2018-11-10T08:21:05.078Z,11.33
2018-11-10T08:22:05.071Z,11.41
2018-11-10T08:23:05.027Z,11.46
2018-11-10T08:24:05.312Z,11.48
2018-11-10T08:25:05.053Z,11.55
2018-11-10T08:26:04.983Z,11.55
2018-11-10T08:27:05.057Z,11.61
2018-11-10T08:28:18.460Z,11.73
2018-11-10T08:29:04.950Z,11.67
2018-11-10T08:30:04.994Z,11.73
2018-11-10T08:31:05.228Z,11.82
2018-11-10T08:32:04.889Z,11.89
2018-11-10T08:34:04.846Z,12.04
2018-11-10T08:35:04.821Z,12.23
2018-11-10T08:37:05.091Z,12.36
2018-11-10T08:38:04.878Z,12.47
2018-11-10T08:39:04.776Z,12.54
2018-11-10T08:40:04.749Z,12.38
2018-11-10T08:41:04.750Z,12.53
2018-11-10T08:42:04.695Z,12.77
2018-11-10T08:43:04.928Z,13.05
2018-11-10T08:44:04.953Z,13.11
2018-11-10T08:45:04.848Z,13.24
2018-11-10T08:46:04.644Z,13.35
2018-11-10T08:47:04.615Z,13.45
2018-11-10T08:48:04.765Z,13.55
2018-11-10T08:49:04.730Z,13.49
2018-11-10T08:50:04.906Z,13.57
2018-11-10T08:51:04.548Z,13.51
2018-11-10T08:52:04.532Z,13.39
2018-11-10T08:53:04.518Z,13.47
2018-11-10T08:54:04.551Z,13.47
2018-11-10T08:55:06.231Z,13.38
2018-11-10T08:56:04.764Z,13.43
2018-11-10T08:57:04.429Z,13.54
2018-11-10T08:58:04.430Z,13.63
2018-11-10T08:59:04.431Z,13.73
2018-11-10T09:01:23.572Z,13.75
2018-11-10T09:02:06.025Z,13.76
2018-11-10T09:03:05.015Z,13.64
2018-11-10T09:04:23.523Z,13.57
2018-11-10T09:06:04.276Z,13.43
2018-11-10T09:07:04.990Z,13.51
2018-11-10T09:08:04.550Z,13.54
2018-11-10T09:09:04.236Z,13.51
2018-11-10T09:10:04.220Z,13.49
2018-11-10T09:11:04.226Z,13.78
2018-11-10T09:12:04.208Z,14.04
2018-11-10T09:13:04.195Z,14.13
2018-11-10T09:14:04.465Z,14.27
2018-11-10T09:15:04.162Z,14.34
2018-11-10T09:16:04.137Z,14.52
2018-11-10T09:17:04.121Z,14.61
2018-11-10T09:18:04.119Z,14.59
2018-11-10T09:19:04.495Z,14.61
2018-11-10T09:20:05.859Z,14.53
2018-11-10T09:21:04.282Z,14.53
2018-11-10T09:22:04.022Z,14.55
2018-11-10T09:23:04.034Z,14.56
2018-11-10T09:24:04.013Z,14.61
2018-11-10T09:25:04.047Z,14.55
2018-11-10T09:26:05.823Z,14.51
2018-11-10T09:27:03.954Z,14.44
2018-11-10T09:29:03.914Z,14.28
2018-11-10T09:30:03.942Z,14.27
2018-11-10T09:31:04.032Z,14.22
2018-11-10T09:32:04.162Z,14.28
2018-11-10T09:33:03.853Z,14.15
2018-11-10T09:34:04.556Z,14.22
2018-11-10T09:35:03.848Z,14.22
2018-11-10T09:36:03.818Z,14.19
2018-11-10T09:37:04.053Z,14.08
2018-11-10T09:39:03.771Z,14.05
2018-11-10T09:40:03.750Z,14.04
2018-11-10T09:41:03.791Z,14.04
2018-11-10T09:42:03.807Z,13.93
2018-11-10T09:43:03.711Z,13.98
2018-11-10T09:44:04.010Z,13.90
2018-11-10T09:45:03.683Z,14.00
2018-11-10T09:46:03.666Z,13.97
2018-11-10T09:47:04.360Z,13.82
2018-11-10T09:48:03.639Z,13.82
2018-11-10T09:49:03.608Z,13.86
2018-11-10T09:50:03.858Z,13.79
2018-11-10T09:51:03.575Z,13.80
2018-11-10T09:53:03.549Z,13.75
2018-11-10T09:54:03.515Z,13.83
2018-11-10T09:55:03.519Z,13.83
2018-11-10T09:56:05.796Z,13.78
2018-11-10T09:57:03.484Z,13.83
2018-11-10T09:58:03.467Z,13.85
2018-11-10T09:59:03.449Z,13.88
2018-11-10T10:00:03.437Z,13.86
2018-11-10T10:01:03.528Z,13.88
2018-11-10T10:02:04.300Z,13.93
2018-11-10T10:03:03.388Z,13.90
2018-11-10T10:04:03.891Z,13.96
2018-11-10T10:05:04.881Z,13.97
2018-11-10T10:07:04.749Z,14.00
2018-11-10T10:08:03.615Z,14.01
2018-11-10T10:09:09.559Z,14.04
2018-11-10T10:10:03.268Z,14.05
2018-11-10T10:11:03.248Z,14.11
2018-11-10T10:13:05.086Z,14.13
2018-11-10T10:15:03.185Z,14.13
2018-11-10T10:16:03.918Z,14.16
2018-11-10T10:17:03.164Z,14.26
2018-11-10T10:18:03.165Z,14.27
2018-11-10T10:19:36.575Z,14.37
2018-11-10T10:20:03.441Z,14.36
2018-11-10T10:22:03.196Z,14.46
2018-11-10T10:23:03.088Z,14.45
2018-11-10T10:26:03.331Z,14.52
2018-11-10T10:27:03.175Z,14.53
2018-11-10T10:28:03.084Z,14.49
2018-11-10T10:29:03.043Z,14.53
2018-11-10T10:30:02.975Z,14.41
2018-11-10T10:31:02.936Z,14.53
2018-11-10T10:32:02.933Z,14.51
2018-11-10T10:33:03.875Z,14.44
2018-11-10T10:34:02.978Z,14.49
2018-11-10T10:35:02.984Z,14.52
2018-11-10T10:37:02.896Z,14.58
2018-11-10T10:38:02.863Z,14.55
2018-11-10T10:39:03.370Z,14.48
2018-11-10T10:40:02.989Z,14.33
2018-11-10T10:41:02.838Z,14.27
2018-11-10T10:42:02.818Z,14.23
2018-11-10T10:43:02.896Z,14.16
2018-11-10T10:44:03.010Z,14.11
2018-11-10T10:45:03.253Z,14.09
2018-11-10T10:46:02.897Z,14.01
2018-11-10T10:47:02.748Z,14.04
2018-11-10T10:48:02.704Z,13.98
2018-11-10T10:49:02.713Z,14.03
2018-11-10T10:50:02.655Z,13.93
2018-11-10T10:51:03.825Z,13.94
2018-11-10T10:52:02.818Z,13.82
2018-11-10T10:53:02.832Z,13.80
2018-11-10T10:54:03.302Z,13.82
2018-11-10T10:55:02.775Z,13.78
2018-11-10T10:56:02.875Z,13.73
2018-11-10T10:57:02.883Z,13.76
2018-11-10T10:58:02.511Z,13.75
2018-11-10T10:59:02.507Z,13.67
2018-11-10T11:01:03.086Z,13.65
2018-11-10T11:02:08.870Z,13.64
2018-11-10T11:03:04.383Z,13.75
2018-11-10T11:04:02.423Z,13.72
2018-11-10T11:05:02.575Z,13.64
2018-11-10T11:06:02.397Z,13.61
2018-11-10T11:07:02.376Z,13.67
2018-11-10T11:08:08.640Z,13.65
2018-11-10T11:09:02.759Z,13.60
2018-11-10T11:10:02.609Z,13.60
2018-11-10T11:11:02.322Z,13.57
2018-11-10T11:12:02.500Z,13.47
2018-11-10T11:13:02.271Z,13.51
2018-11-10T11:14:02.337Z,13.55
2018-11-10T11:15:02.589Z,13.55
2018-11-10T11:16:02.588Z,13.47
2018-11-10T11:17:02.218Z,13.43
2018-11-10T11:18:02.230Z,13.43
2018-11-10T11:19:02.180Z,13.35
2018-11-10T11:20:02.209Z,13.38
2018-11-10T11:21:02.780Z,13.36
2018-11-10T11:22:02.209Z,13.35
2018-11-10T11:23:02.093Z,13.35
2018-11-10T11:24:02.106Z,13.17
2018-11-10T11:25:02.807Z,13.20
2018-11-10T11:26:02.708Z,13.23
2018-11-10T11:27:02.337Z,13.30
2018-11-10T11:28:02.843Z,13.32
2018-11-10T11:29:03.515Z,13.29
2018-11-10T11:30:02.040Z,13.39
2018-11-10T11:31:02.568Z,13.39
2018-11-10T11:32:02.027Z,13.42
2018-11-10T11:33:05.208Z,13.36
2018-11-10T11:34:01.947Z,13.45
2018-11-10T11:35:01.976Z,13.42
2018-11-10T11:36:02.169Z,13.49
2018-11-10T11:37:02.616Z,13.49
2018-11-10T11:38:02.049Z,13.47
2018-11-10T11:39:05.238Z,13.47
2018-11-10T11:40:08.195Z,13.46
2018-11-10T11:41:01.885Z,13.55
2018-11-10T11:42:14.553Z,13.60
2018-11-10T11:43:02.365Z,13.43
2018-11-10T11:44:14.503Z,13.54
2018-11-10T11:45:02.661Z,13.49
2018-11-10T11:46:04.726Z,13.53
2018-11-10T11:47:01.727Z,13.58
2018-11-10T11:48:01.668Z,13.65
2018-11-10T11:49:01.640Z,13.68
2018-11-10T11:50:02.232Z,13.76
2018-11-10T11:51:01.939Z,13.88
2018-11-10T11:52:01.663Z,14.05
2018-11-10T11:53:01.639Z,14.11
2018-11-10T11:54:01.567Z,14.22
2018-11-10T11:55:02.266Z,14.34
2018-11-10T11:56:01.657Z,14.52
2018-11-10T11:57:01.850Z,14.51
2018-11-10T11:58:01.778Z,14.56
2018-11-10T11:59:01.508Z,14.56
2018-11-10T12:00:01.480Z,14.66
2018-11-10T12:01:01.508Z,14.67
2018-11-10T12:02:01.564Z,14.69
2018-11-10T12:03:01.427Z,14.73
2018-11-10T12:04:01.417Z,14.74
2018-11-10T12:05:01.397Z,14.70
2018-11-10T12:06:01.403Z,14.79
2018-11-10T12:07:01.369Z,14.79
2018-11-10T12:08:01.657Z,14.78
2018-11-10T12:09:01.933Z,14.63
2018-11-10T12:10:01.326Z,14.66
2018-11-10T12:11:01.291Z,14.71
2018-11-10T12:12:01.291Z,14.63
2018-11-10T12:13:01.269Z,14.70
2018-11-10T12:14:01.562Z,14.83
2018-11-10T12:15:01.549Z,14.74
2018-11-10T12:16:01.240Z,14.83
2018-11-10T12:17:01.560Z,14.82
2018-11-10T12:18:01.209Z,14.99
2018-11-10T12:19:01.456Z,15.08
2018-11-10T12:20:02.474Z,15.14
2018-11-10T12:21:01.555Z,15.08
2018-11-10T12:22:01.307Z,15.07
2018-11-10T12:23:01.133Z,15.05
2018-11-10T12:24:01.117Z,14.96
2018-11-10T12:25:01.098Z,14.96
2018-11-10T12:26:01.729Z,15.01
2018-11-10T12:27:01.404Z,14.89
2018-11-10T12:28:04.296Z,14.93
2018-11-10T12:29:01.855Z,14.93
2018-11-10T12:30:01.258Z,14.86
2018-11-10T12:31:04.152Z,14.78
2018-11-10T12:32:01.734Z,14.70
2018-11-10T12:33:01.009Z,14.73
2018-11-10T12:34:01.057Z,14.74
2018-11-10T12:35:00.945Z,14.61
2018-11-10T12:36:00.977Z,14.59
2018-11-10T12:37:01.108Z,14.55
2018-11-10T12:38:01.144Z,14.56
2018-11-10T12:39:01.012Z,14.55
2018-11-10T12:40:00.884Z,14.58
2018-11-10T12:41:01.467Z,14.58
2018-11-10T12:42:00.852Z,14.55
2018-11-10T12:43:00.825Z,14.58
2018-11-10T12:44:01.409Z,14.56
2018-11-10T12:45:00.804Z,14.59
2018-11-10T12:46:00.778Z,14.56
2018-11-10T12:47:00.794Z,14.58
2018-11-10T12:48:00.770Z,14.45
2018-11-10T12:49:00.799Z,14.55
2018-11-10T12:50:00.716Z,14.58
2018-11-10T12:51:00.728Z,14.46
2018-11-10T12:52:00.692Z,14.59
2018-11-10T12:53:00.789Z,14.40
2018-11-10T12:54:00.744Z,14.59
2018-11-10T12:55:00.789Z,14.56
2018-11-10T12:56:00.760Z,14.56
2018-11-10T12:57:00.615Z,14.45
2018-11-10T12:58:00.821Z,14.37
2018-11-10T12:59:00.586Z,14.28
2018-11-10T13:00:00.607Z,14.26
2018-11-10T13:01:00.570Z,14.16
2018-11-10T13:02:00.611Z,14.05
2018-11-10T13:03:00.539Z,14.01
2018-11-10T13:04:00.530Z,13.97
2018-11-10T13:05:00.504Z,13.96
2018-11-10T13:06:00.478Z,13.90
2018-11-10T13:07:00.474Z,13.76
2018-11-10T13:08:00.779Z,13.80
2018-11-10T13:09:00.496Z,13.82
2018-11-10T13:10:00.462Z,13.82
2018-11-10T13:11:00.604Z,13.72
2018-11-10T13:12:00.563Z,13.75
2018-11-10T13:13:00.372Z,13.78
2018-11-10T13:14:00.599Z,13.75
2018-11-10T13:15:00.340Z,13.73
2018-11-10T13:16:00.337Z,13.73
2018-11-10T13:17:00.544Z,13.79
2018-11-10T13:18:01.017Z,13.72
2018-11-10T13:19:00.301Z,13.71
2018-11-10T13:20:00.868Z,13.64
2018-11-10T13:21:00.383Z,13.58
2018-11-10T13:22:00.225Z,13.55
2018-11-10T13:23:00.221Z,13.54
2018-11-10T13:24:00.201Z,13.55
2018-11-10T13:25:00.193Z,13.60
2018-11-10T13:26:00.466Z,13.60
2018-11-10T13:27:00.751Z,13.54
2018-11-10T13:28:00.136Z,13.55
2018-11-10T13:29:00.111Z,13.58
2018-11-10T13:30:00.099Z,13.58
2018-11-10T13:31:00.169Z,13.58
2018-11-10T13:32:00.400Z,13.61
2018-11-10T13:33:00.058Z,13.49
2018-11-10T13:34:00.445Z,13.42
2018-11-10T13:35:00.054Z,13.40
2018-11-10T13:35:59.999Z,13.53
2018-11-10T13:36:59.980Z,13.51
2018-11-10T13:38:00.316Z,13.43
2018-11-10T13:39:00.001Z,13.49
2018-11-10T13:39:59.938Z,13.43
2018-11-10T13:40:59.922Z,13.43
2018-11-10T13:41:59.914Z,13.42